Longton, United Kingdom
Current Conditions -  °F | °C
As of 4:50 PM on Thursday 30 Oct 2014 (Local Time) from EGOS Reporting Station
Broken Clouds Broken Clouds  
Wind Chill: 63°   Ceiling: 5000
Heat Index: 63°   Visibility: 6mi
Dew Point: 57°   Wind: 10mph
Humidity: 82%   Direction: 160°SSE
Pressure: 29.97"   Gusts: NA
Location:  52.98°N, 2.13°W
Report Text: EGOS 301650Z 16009KT 9999 SCT027 BKN050 17/14 Q1015 BLU NOSIG
Loading
Personal Weather Stations






























Interactive Weather Map
Tropical Storm Tracking
New forecast layout! Learn more

10-Day Weather Forecast

Advertisements
Track Severe Weather on mobile